sensor_id;sensor_type;location;lat;lon;timestamp;temperature;humidity
64638;HTU21D;51049;45.046;38.950;2023-06-22T00:02:16;20.16;61.24
64638;HTU21D;51049;45.046;38.950;2023-06-22T00:04:42;20.14;61.34
64638;HTU21D;51049;45.046;38.950;2023-06-22T00:07:08;20.12;61.33
64638;HTU21D;51049;45.046;38.950;2023-06-22T00:09:34;20.11;61.34
64638;HTU21D;51049;45.046;38.950;2023-06-22T00:12:01;20.11;61.37
64638;HTU21D;51049;45.046;38.950;2023-06-22T00:14:27;20.09;61.34
64638;HTU21D;51049;45.046;38.950;2023-06-22T00:16:52;20.12;61.28
64638;HTU21D;51049;45.046;38.950;2023-06-22T00:19:24;20.17;61.07
64638;HTU21D;51049;45.046;38.950;2023-06-22T00:21:51;20.22;60.89
64638;HTU21D;51049;45.046;38.950;2023-06-22T00:24:20;20.28;60.76
64638;HTU21D;51049;45.046;38.950;2023-06-22T00:26:48;20.32;60.61
64638;HTU21D;51049;45.046;38.950;2023-06-22T00:29:15;20.33;60.49
64638;HTU21D;51049;45.046;38.950;2023-06-22T00:31:42;20.35;60.44
64638;HTU21D;51049;45.046;38.950;2023-06-22T00:34:08;20.34;60.39
64638;HTU21D;51049;45.046;38.950;2023-06-22T00:36:35;20.34;60.35
64638;HTU21D;51049;45.046;38.950;2023-06-22T00:39:02;20.34;60.32
64638;HTU21D;51049;45.046;38.950;2023-06-22T00:41:29;20.31;60.34
64638;HTU21D;51049;45.046;38.950;2023-06-22T00:43:56;20.27;60.35
64638;HTU21D;51049;45.046;38.950;2023-06-22T00:46:23;20.27;60.31
64638;HTU21D;51049;45.046;38.950;2023-06-22T00:48:50;20.27;60.32
64638;HTU21D;51049;45.046;38.950;2023-06-22T00:51:17;20.27;60.26
64638;HTU21D;51049;45.046;38.950;2023-06-22T00:53:46;20.26;60.18
64638;HTU21D;51049;45.046;38.950;2023-06-22T00:56:13;20.27;60.12
64638;HTU21D;51049;45.046;38.950;2023-06-22T00:58:39;20.28;60.02
64638;HTU21D;51049;45.046;38.950;2023-06-22T01:01:07;20.29;59.92
64638;HTU21D;51049;45.046;38.950;2023-06-22T01:03:33;20.32;59.82
64638;HTU21D;51049;45.046;38.950;2023-06-22T01:06:06;20.32;59.81
64638;HTU21D;51049;45.046;38.950;2023-06-22T01:08:44;20.30;59.81
64638;HTU21D;51049;45.046;38.950;2023-06-22T01:11:26;20.26;59.86
64638;HTU21D;51049;45.046;38.950;2023-06-22T01:13:57;20.21;59.85
64638;HTU21D;51049;45.046;38.950;2023-06-22T01:16:31;20.14;60.16
64638;HTU21D;51049;45.046;38.950;2023-06-22T01:19:05;20.09;60.25
64638;HTU21D;51049;45.046;38.950;2023-06-22T01:21:34;20.04;60.29
64638;HTU21D;51049;45.046;38.950;2023-06-22T01:24:24;20.00;60.32
64638;HTU21D;51049;45.046;38.950;2023-06-22T01:29:57;19.95;60.20
64638;HTU21D;51049;45.046;38.950;2023-06-22T01:32:34;19.95;60.24
64638;HTU21D;51049;45.046;38.950;2023-06-22T01:35:01;19.95;60.19
64638;HTU21D;51049;45.046;38.950;2023-06-22T01:37:31;19.95;60.15
64638;HTU21D;51049;45.046;38.950;2023-06-22T01:39:58;19.95;60.17
64638;HTU21D;51049;45.046;38.950;2023-06-22T01:42:25;19.95;60.20
64638;HTU21D;51049;45.046;38.950;2023-06-22T01:44:54;19.95;60.36
64638;HTU21D;51049;45.046;38.950;2023-06-22T01:47:22;19.92;60.35
64638;HTU21D;51049;45.046;38.950;2023-06-22T01:49:49;19.94;60.35
64638;HTU21D;51049;45.046;38.950;2023-06-22T01:52:17;19.96;60.36
64638;HTU21D;51049;45.046;38.950;2023-06-22T01:54:44;20.00;60.33
64638;HTU21D;51049;45.046;38.950;2023-06-22T01:57:10;20.04;60.32
64638;HTU21D;51049;45.046;38.950;2023-06-22T02:02:27;20.13;60.28
64638;HTU21D;51049;45.046;38.950;2023-06-22T02:05:07;20.15;60.31
64638;HTU21D;51049;45.046;38.950;2023-06-22T02:07:44;20.18;60.31
64638;HTU21D;51049;45.046;38.950;2023-06-22T02:10:14;20.20;60.29
64638;HTU21D;51049;45.046;38.950;2023-06-22T02:12:42;20.24;60.30
64638;HTU21D;51049;45.046;38.950;2023-06-22T02:15:10;20.26;60.32
64638;HTU21D;51049;45.046;38.950;2023-06-22T02:17:38;20.29;60.31
64638;HTU21D;51049;45.046;38.950;2023-06-22T02:20:04;20.33;60.31
64638;HTU21D;51049;45.046;38.950;2023-06-22T02:22:33;20.36;60.29
64638;HTU21D;51049;45.046;38.950;2023-06-22T02:24:59;20.42;60.31
64638;HTU21D;51049;45.046;38.950;2023-06-22T02:27:25;20.46;60.31
64638;HTU21D;51049;45.046;38.950;2023-06-22T02:29:51;20.50;60.37
64638;HTU21D;51049;45.046;38.950;2023-06-22T02:32:17;20.53;60.39
64638;HTU21D;51049;45.046;38.950;2023-06-22T02:34:46;20.59;60.42
64638;HTU21D;51049;45.046;38.950;2023-06-22T02:37:15;20.64;60.41
64638;HTU21D;51049;45.046;38.950;2023-06-22T02:39:41;20.70;60.44
64638;HTU21D;51049;45.046;38.950;2023-06-22T02:42:07;20.79;60.33
64638;HTU21D;51049;45.046;38.950;2023-06-22T02:44:33;20.85;60.25
64638;HTU21D;51049;45.046;38.950;2023-06-22T02:46:59;20.90;60.21
64638;HTU21D;51049;45.046;38.950;2023-06-22T02:49:25;20.96;60.15
64638;HTU21D;51049;45.046;38.950;2023-06-22T02:51:51;21.02;60.14
64638;HTU21D;51049;45.046;38.950;2023-06-22T02:54:20;21.05;60.12
64638;HTU21D;51049;45.046;38.950;2023-06-22T02:56:48;21.09;60.10
64638;HTU21D;51049;45.046;38.950;2023-06-22T02:59:17;21.15;60.09
64638;HTU21D;51049;45.046;38.950;2023-06-22T03:01:44;21.19;60.06
64638;HTU21D;51049;45.046;38.950;2023-06-22T03:04:21;21.23;59.99
64638;HTU21D;51049;45.046;38.950;2023-06-22T03:06:47;21.28;59.96
64638;HTU21D;51049;45.046;38.950;2023-06-22T03:09:17;21.35;59.90
64638;HTU21D;51049;45.046;38.950;2023-06-22T03:11:43;21.40;59.84
64638;HTU21D;51049;45.046;38.950;2023-06-22T03:14:09;21.46;59.79
64638;HTU21D;51049;45.046;38.950;2023-06-22T03:16:35;21.52;59.70
64638;HTU21D;51049;45.046;38.950;2023-06-22T03:19:02;21.57;59.68
64638;HTU21D;51049;45.046;38.950;2023-06-22T03:21:29;21.61;59.67
64638;HTU21D;51049;45.046;38.950;2023-06-22T03:23:55;21.68;59.67
64638;HTU21D;51049;45.046;38.950;2023-06-22T03:26:21;21.75;59.65
64638;HTU21D;51049;45.046;38.950;2023-06-22T03:28:48;21.80;59.57
64638;HTU21D;51049;45.046;38.950;2023-06-22T03:31:15;21.88;59.48
64638;HTU21D;51049;45.046;38.950;2023-06-22T03:33:41;21.94;59.39
64638;HTU21D;51049;45.046;38.950;2023-06-22T03:36:07;21.99;59.32
64638;HTU21D;51049;45.046;38.950;2023-06-22T03:38:34;22.06;59.29
64638;HTU21D;51049;45.046;38.950;2023-06-22T03:41:00;22.13;59.21
64638;HTU21D;51049;45.046;38.950;2023-06-22T03:43:26;22.22;59.16
64638;HTU21D;51049;45.046;38.950;2023-06-22T03:45:52;22.32;59.06
64638;HTU21D;51049;45.046;38.950;2023-06-22T03:48:18;22.40;58.94
64638;HTU21D;51049;45.046;38.950;2023-06-22T03:50:44;22.51;58.85
64638;HTU21D;51049;45.046;38.950;2023-06-22T03:53:10;22.62;58.67
64638;HTU21D;51049;45.046;38.950;2023-06-22T03:55:36;22.72;58.57
64638;HTU21D;51049;45.046;38.950;2023-06-22T03:58:02;22.84;58.38
64638;HTU21D;51049;45.046;38.950;2023-06-22T04:00:32;22.92;58.22
64638;HTU21D;51049;45.046;38.950;2023-06-22T04:02:58;23.01;58.09
64638;HTU21D;51049;45.046;38.950;2023-06-22T04:05:24;23.12;57.96
64638;HTU21D;51049;45.046;38.950;2023-06-22T04:07:50;23.22;57.80
64638;HTU21D;51049;45.046;38.950;2023-06-22T04:10:16;23.29;57.64
64638;HTU21D;51049;45.046;38.950;2023-06-22T04:12:42;23.39;57.50
64638;HTU21D;51049;45.046;38.950;2023-06-22T04:15:08;23.45;57.35
64638;HTU21D;51049;45.046;38.950;2023-06-22T04:17:34;23.53;57.21
64638;HTU21D;51049;45.046;38.950;2023-06-22T04:20:00;23.59;57.06
64638;HTU21D;51049;45.046;38.950;2023-06-22T04:22:26;23.67;56.99
64638;HTU21D;51049;45.046;38.950;2023-06-22T04:24:52;23.77;56.87
64638;HTU21D;51049;45.046;38.950;2023-06-22T04:27:18;23.86;56.74
64638;HTU21D;51049;45.046;38.950;2023-06-22T04:29:45;23.92;56.68
64638;HTU21D;51049;45.046;38.950;2023-06-22T04:32:15;24.04;56.61
64638;HTU21D;51049;45.046;38.950;2023-06-22T04:34:42;24.16;56.41
64638;HTU21D;51049;45.046;38.950;2023-06-22T04:37:07;24.27;56.28
64638;HTU21D;51049;45.046;38.950;2023-06-22T04:39:33;24.38;56.03
64638;HTU21D;51049;45.046;38.950;2023-06-22T04:41:59;24.47;55.79
64638;HTU21D;51049;45.046;38.950;2023-06-22T04:44:26;24.54;55.63
64638;HTU21D;51049;45.046;38.950;2023-06-22T04:46:57;24.60;55.44
64638;HTU21D;51049;45.046;38.950;2023-06-22T04:49:28;24.70;55.29
64638;HTU21D;51049;45.046;38.950;2023-06-22T04:54:32;24.86;54.98
64638;HTU21D;51049;45.046;38.950;2023-06-22T04:57:00;24.93;54.92
64638;HTU21D;51049;45.046;38.950;2023-06-22T04:59:28;25.02;54.82
64638;HTU21D;51049;45.046;38.950;2023-06-22T05:02:00;25.10;54.67
64638;HTU21D;51049;45.046;38.950;2023-06-22T05:04:27;25.20;54.64
64638;HTU21D;51049;45.046;38.950;2023-06-22T05:06:54;25.30;54.49
64638;HTU21D;51049;45.046;38.950;2023-06-22T05:09:20;25.44;54.33
64638;HTU21D;51049;45.046;38.950;2023-06-22T05:11:47;25.54;54.07
64638;HTU21D;51049;45.046;38.950;2023-06-22T05:14:13;25.64;53.84
64638;HTU21D;51049;45.046;38.950;2023-06-22T05:16:41;25.73;53.66
64638;HTU21D;51049;45.046;38.950;2023-06-22T05:19:07;25.79;53.54
64638;HTU21D;51049;45.046;38.950;2023-06-22T05:21:33;25.87;53.50
64638;HTU21D;51049;45.046;38.950;2023-06-22T05:23:59;25.96;53.30
64638;HTU21D;51049;45.046;38.950;2023-06-22T05:26:26;26.04;53.15
64638;HTU21D;51049;45.046;38.950;2023-06-22T05:28:53;26.11;53.07
64638;HTU21D;51049;45.046;38.950;2023-06-22T05:31:19;26.20;52.75
64638;HTU21D;51049;45.046;38.950;2023-06-22T05:33:46;26.28;52.70
64638;HTU21D;51049;45.046;38.950;2023-06-22T05:36:12;26.40;52.64
64638;HTU21D;51049;45.046;38.950;2023-06-22T05:38:39;26.45;52.45
64638;HTU21D;51049;45.046;38.950;2023-06-22T05:41:05;26.53;52.21
64638;HTU21D;51049;45.046;38.950;2023-06-22T05:43:32;26.62;51.84
64638;HTU21D;51049;45.046;38.950;2023-06-22T05:45:59;26.71;51.77
64638;HTU21D;51049;45.046;38.950;2023-06-22T05:48:25;26.83;51.59
64638;HTU21D;51049;45.046;38.950;2023-06-22T05:50:51;26.91;51.40
64638;HTU21D;51049;45.046;38.950;2023-06-22T05:53:17;26.95;51.24
64638;HTU21D;51049;45.046;38.950;2023-06-22T05:55:43;27.01;51.11
64638;HTU21D;51049;45.046;38.950;2023-06-22T05:58:09;27.08;50.95
64638;HTU21D;51049;45.046;38.950;2023-06-22T06:00:35;27.15;50.79
64638;HTU21D;51049;45.046;38.950;2023-06-22T06:03:02;27.21;50.59
64638;HTU21D;51049;45.046;38.950;2023-06-22T06:05:33;27.24;50.34
64638;HTU21D;51049;45.046;38.950;2023-06-22T06:08:00;27.27;50.34
64638;HTU21D;51049;45.046;38.950;2023-06-22T06:10:27;27.36;50.12
64638;HTU21D;51049;45.046;38.950;2023-06-22T06:12:55;27.45;50.07
64638;HTU21D;51049;45.046;38.950;2023-06-22T06:15:21;27.55;49.98
64638;HTU21D;51049;45.046;38.950;2023-06-22T06:17:49;27.68;49.73
64638;HTU21D;51049;45.046;38.950;2023-06-22T06:20:18;27.78;49.58
64638;HTU21D;51049;45.046;38.950;2023-06-22T06:22:44;27.87;48.94
64638;HTU21D;51049;45.046;38.950;2023-06-22T06:25:10;27.95;48.74
64638;HTU21D;51049;45.046;38.950;2023-06-22T06:27:44;28.02;49.02
64638;HTU21D;51049;45.046;38.950;2023-06-22T06:30:11;28.13;48.63
64638;HTU21D;51049;45.046;38.950;2023-06-22T06:32:39;28.25;48.42
64638;HTU21D;51049;45.046;38.950;2023-06-22T06:35:06;28.40;48.26
64638;HTU21D;51049;45.046;38.950;2023-06-22T06:37:36;28.46;47.99
64638;HTU21D;51049;45.046;38.950;2023-06-22T06:40:06;28.47;47.79
64638;HTU21D;51049;45.046;38.950;2023-06-22T06:42:39;28.48;47.73
64638;HTU21D;51049;45.046;38.950;2023-06-22T06:45:08;28.46;47.68
64638;HTU21D;51049;45.046;38.950;2023-06-22T06:47:34;28.50;47.74
64638;HTU21D;51049;45.046;38.950;2023-06-22T06:50:00;28.57;47.41
64638;HTU21D;51049;45.046;38.950;2023-06-22T06:52:26;28.55;47.29
64638;HTU21D;51049;45.046;38.950;2023-06-22T06:54:53;28.55;47.01
64638;HTU21D;51049;45.046;38.950;2023-06-22T06:57:19;28.59;47.14
64638;HTU21D;51049;45.046;38.950;2023-06-22T06:59:46;28.64;47.04
64638;HTU21D;51049;45.046;38.950;2023-06-22T07:02:12;28.69;46.83
64638;HTU21D;51049;45.046;38.950;2023-06-22T07:04:38;28.72;46.67
64638;HTU21D;51049;45.046;38.950;2023-06-22T07:07:04;28.74;46.54
64638;HTU21D;51049;45.046;38.950;2023-06-22T07:09:30;28.79;46.40
64638;HTU21D;51049;45.046;38.950;2023-06-22T07:11:56;28.84;46.11
64638;HTU21D;51049;45.046;38.950;2023-06-22T07:14:22;28.88;45.93
64638;HTU21D;51049;45.046;38.950;2023-06-22T07:16:48;28.91;45.84
64638;HTU21D;51049;45.046;38.950;2023-06-22T07:19:14;29.01;45.77
64638;HTU21D;51049;45.046;38.950;2023-06-22T07:21:40;29.05;45.55
64638;HTU21D;51049;45.046;38.950;2023-06-22T07:24:07;29.13;45.36
64638;HTU21D;51049;45.046;38.950;2023-06-22T07:26:33;29.19;45.19
64638;HTU21D;51049;45.046;38.950;2023-06-22T07:29:00;29.17;44.93
64638;HTU21D;51049;45.046;38.950;2023-06-22T07:31:26;29.14;44.90
64638;HTU21D;51049;45.046;38.950;2023-06-22T07:33:52;29.17;44.85
64638;HTU21D;51049;45.046;38.950;2023-06-22T07:36:18;29.18;44.58
64638;HTU21D;51049;45.046;38.950;2023-06-22T07:38:44;29.20;44.43
64638;HTU21D;51049;45.046;38.950;2023-06-22T07:41:10;29.23;44.22
64638;HTU21D;51049;45.046;38.950;2023-06-22T07:43:36;29.26;44.13
64638;HTU21D;51049;45.046;38.950;2023-06-22T07:46:03;29.29;44.02
64638;HTU21D;51049;45.046;38.950;2023-06-22T07:48:29;29.34;43.84
64638;HTU21D;51049;45.046;38.950;2023-06-22T07:50:55;29.33;43.42
64638;HTU21D;51049;45.046;38.950;2023-06-22T07:53:22;29.28;43.30
64638;HTU21D;51049;45.046;38.950;2023-06-22T07:55:49;29.29;43.23
64638;HTU21D;51049;45.046;38.950;2023-06-22T07:58:15;29.32;42.84
64638;HTU21D;51049;45.046;38.950;2023-06-22T08:00:41;29.38;42.90
64638;HTU21D;51049;45.046;38.950;2023-06-22T08:03:07;29.52;42.60
64638;HTU21D;51049;45.046;38.950;2023-06-22T08:05:33;29.68;42.30
64638;HTU21D;51049;45.046;38.950;2023-06-22T08:07:59;29.85;41.97
64638;HTU21D;51049;45.046;38.950;2023-06-22T08:10:25;29.96;41.76
64638;HTU21D;51049;45.046;38.950;2023-06-22T08:12:51;30.05;41.04
64638;HTU21D;51049;45.046;38.950;2023-06-22T08:15:18;30.07;40.47
64638;HTU21D;51049;45.046;38.950;2023-06-22T08:17:44;30.08;39.94
64638;HTU21D;51049;45.046;38.950;2023-06-22T08:20:11;30.07;39.54
64638;HTU21D;51049;45.046;38.950;2023-06-22T08:22:38;30.05;39.65
64638;HTU21D;51049;45.046;38.950;2023-06-22T08:25:05;30.01;38.72
64638;HTU21D;51049;45.046;38.950;2023-06-22T08:27:31;29.94;38.35
64638;HTU21D;51049;45.046;38.950;2023-06-22T08:29:58;29.88;38.57
64638;HTU21D;51049;45.046;38.950;2023-06-22T08:32:28;29.87;38.58
64638;HTU21D;51049;45.046;38.950;2023-06-22T08:34:55;29.92;38.60
64638;HTU21D;51049;45.046;38.950;2023-06-22T08:37:22;30.01;38.47
64638;HTU21D;51049;45.046;38.950;2023-06-22T08:39:50;30.09;38.33
64638;HTU21D;51049;45.046;38.950;2023-06-22T08:42:16;30.17;38.08
64638;HTU21D;51049;45.046;38.950;2023-06-22T08:44:42;30.20;37.96
64638;HTU21D;51049;45.046;38.950;2023-06-22T08:47:08;30.24;37.54
64638;HTU21D;51049;45.046;38.950;2023-06-22T08:49:34;30.23;37.53
64638;HTU21D;51049;45.046;38.950;2023-06-22T08:52:00;30.31;37.43
64638;HTU21D;51049;45.046;38.950;2023-06-22T08:54:26;30.34;37.33
64638;HTU21D;51049;45.046;38.950;2023-06-22T08:56:52;30.37;37.18
64638;HTU21D;51049;45.046;38.950;2023-06-22T08:59:18;30.39;37.20
64638;HTU21D;51049;45.046;38.950;2023-06-22T09:01:44;30.42;37.11
64638;HTU21D;51049;45.046;38.950;2023-06-22T09:04:11;30.46;37.02
64638;HTU21D;51049;45.046;38.950;2023-06-22T09:06:37;30.56;37.05
64638;HTU21D;51049;45.046;38.950;2023-06-22T09:09:12;30.65;36.49
64638;HTU21D;51049;45.046;38.950;2023-06-22T09:11:38;30.65;36.37
64638;HTU21D;51049;45.046;38.950;2023-06-22T09:14:04;30.63;36.33
64638;HTU21D;51049;45.046;38.950;2023-06-22T09:16:30;30.67;36.26
64638;HTU21D;51049;45.046;38.950;2023-06-22T09:18:56;30.72;36.11
64638;HTU21D;51049;45.046;38.950;2023-06-22T09:21:23;30.76;35.96
64638;HTU21D;51049;45.046;38.950;2023-06-22T09:23:49;30.85;36.20
64638;HTU21D;51049;45.046;38.950;2023-06-22T09:26:18;30.98;35.70
64638;HTU21D;51049;45.046;38.950;2023-06-22T09:28:44;31.09;35.73
64638;HTU21D;51049;45.046;38.950;2023-06-22T09:31:11;31.18;35.37
64638;HTU21D;51049;45.046;38.950;2023-06-22T09:33:37;31.23;35.65
64638;HTU21D;51049;45.046;38.950;2023-06-22T09:36:06;31.34;35.32
64638;HTU21D;51049;45.046;38.950;2023-06-22T09:38:36;31.33;35.02
64638;HTU21D;51049;45.046;38.950;2023-06-22T09:41:02;31.27;34.88
64638;HTU21D;51049;45.046;38.950;2023-06-22T09:43:28;31.26;34.05
64638;HTU21D;51049;45.046;38.950;2023-06-22T09:45:54;31.21;33.95
64638;HTU21D;51049;45.046;38.950;2023-06-22T09:48:20;31.20;34.31
64638;HTU21D;51049;45.046;38.950;2023-06-22T09:50:46;31.31;34.28
64638;HTU21D;51049;45.046;38.950;2023-06-22T09:53:12;31.45;34.11
64638;HTU21D;51049;45.046;38.950;2023-06-22T09:55:38;31.58;33.99
64638;HTU21D;51049;45.046;38.950;2023-06-22T09:58:04;31.65;33.50
64638;HTU21D;51049;45.046;38.950;2023-06-22T10:00:30;31.64;33.26
64638;HTU21D;51049;45.046;38.950;2023-06-22T10:02:57;31.65;33.14
64638;HTU21D;51049;45.046;38.950;2023-06-22T10:05:23;31.70;33.37
64638;HTU21D;51049;45.046;38.950;2023-06-22T10:07:50;31.79;33.20
64638;HTU21D;51049;45.046;38.950;2023-06-22T10:10:16;31.80;32.64
64638;HTU21D;51049;45.046;38.950;2023-06-22T10:12:47;31.74;32.54
64638;HTU21D;51049;45.046;38.950;2023-06-22T10:15:14;31.75;32.52
64638;HTU21D;51049;45.046;38.950;2023-06-22T10:17:40;31.73;32.22
64638;HTU21D;51049;45.046;38.950;2023-06-22T10:20:07;31.70;32.22
64638;HTU21D;51049;45.046;38.950;2023-06-22T10:22:41;31.70;33.05
64638;HTU21D;51049;45.046;38.950;2023-06-22T10:25:08;31.70;32.57
64638;HTU21D;51049;45.046;38.950;2023-06-22T10:27:34;31.79;32.48
64638;HTU21D;51049;45.046;38.950;2023-06-22T10:30:00;31.88;32.13
64638;HTU21D;51049;45.046;38.950;2023-06-22T10:32:26;31.94;31.95
64638;HTU21D;51049;45.046;38.950;2023-06-22T10:34:54;31.98;31.54
64638;HTU21D;51049;45.046;38.950;2023-06-22T10:37:20;31.99;31.32
64638;HTU21D;51049;45.046;38.950;2023-06-22T10:39:46;31.99;31.33
64638;HTU21D;51049;45.046;38.950;2023-06-22T10:42:12;32.08;31.45
64638;HTU21D;51049;45.046;38.950;2023-06-22T10:44:38;32.23;31.32
64638;HTU21D;51049;45.046;38.950;2023-06-22T10:47:07;32.35;31.07
64638;HTU21D;51049;45.046;38.950;2023-06-22T10:49:32;32.46;30.51
64638;HTU21D;51049;45.046;38.950;2023-06-22T10:51:58;32.50;30.52
64638;HTU21D;51049;45.046;38.950;2023-06-22T10:54:24;32.59;30.30
64638;HTU21D;51049;45.046;38.950;2023-06-22T10:56:50;32.60;30.23
64638;HTU21D;51049;45.046;38.950;2023-06-22T10:59:16;32.64;30.05
64638;HTU21D;51049;45.046;38.950;2023-06-22T11:01:42;32.72;29.93
64638;HTU21D;51049;45.046;38.950;2023-06-22T11:04:08;32.57;29.55
64638;HTU21D;51049;45.046;38.950;2023-06-22T11:06:34;32.45;29.81
64638;HTU21D;51049;45.046;38.950;2023-06-22T11:09:00;32.53;29.96
64638;HTU21D;51049;45.046;38.950;2023-06-22T11:11:26;32.60;29.68
64638;HTU21D;51049;45.046;38.950;2023-06-22T11:13:52;32.41;29.68
64638;HTU21D;51049;45.046;38.950;2023-06-22T11:16:18;32.26;29.77
64638;HTU21D;51049;45.046;38.950;2023-06-22T11:18:44;32.25;29.83
64638;HTU21D;51049;45.046;38.950;2023-06-22T11:21:10;32.33;29.75
64638;HTU21D;51049;45.046;38.950;2023-06-22T11:23:36;32.31;29.71
64638;HTU21D;51049;45.046;38.950;2023-06-22T11:26:02;32.14;29.87
64638;HTU21D;51049;45.046;38.950;2023-06-22T11:28:28;32.05;29.84
64638;HTU21D;51049;45.046;38.950;2023-06-22T11:30:54;31.99;29.38
64638;HTU21D;51049;45.046;38.950;2023-06-22T11:33:20;31.95;29.63
64638;HTU21D;51049;45.046;38.950;2023-06-22T11:35:46;31.96;29.47
64638;HTU21D;51049;45.046;38.950;2023-06-22T11:38:12;32.02;29.43
64638;HTU21D;51049;45.046;38.950;2023-06-22T11:40:37;32.08;28.88
64638;HTU21D;51049;45.046;38.950;2023-06-22T11:43:03;32.03;28.50
64638;HTU21D;51049;45.046;38.950;2023-06-22T11:45:29;31.98;28.38
64638;HTU21D;51049;45.046;38.950;2023-06-22T11:47:55;32.05;28.46
64638;HTU21D;51049;45.046;38.950;2023-06-22T11:50:22;32.16;28.38
64638;HTU21D;51049;45.046;38.950;2023-06-22T11:52:48;32.38;28.30
64638;HTU21D;51049;45.046;38.950;2023-06-22T11:55:14;32.63;27.98
64638;HTU21D;51049;45.046;38.950;2023-06-22T11:57:54;33.11;27.52
64638;HTU21D;51049;45.046;38.950;2023-06-22T12:00:20;33.47;26.84
64638;HTU21D;51049;45.046;38.950;2023-06-22T12:02:48;33.89;26.34
64638;HTU21D;51049;45.046;38.950;2023-06-22T12:05:14;34.36;25.52
64638;HTU21D;51049;45.046;38.950;2023-06-22T12:07:40;34.69;25.03
64638;HTU21D;51049;45.046;38.950;2023-06-22T12:10:06;34.86;24.36
64638;HTU21D;51049;45.046;38.950;2023-06-22T12:12:32;35.03;24.36
64638;HTU21D;51049;45.046;38.950;2023-06-22T12:14:59;35.19;24.19
64638;HTU21D;51049;45.046;38.950;2023-06-22T12:17:29;35.49;24.11
64638;HTU21D;51049;45.046;38.950;2023-06-22T12:19:56;35.80;23.90
64638;HTU21D;51049;45.046;38.950;2023-06-22T12:22:22;35.97;23.15
64638;HTU21D;51049;45.046;38.950;2023-06-22T12:24:47;35.95;23.15
64638;HTU21D;51049;45.046;38.950;2023-06-22T12:27:14;36.11;23.06
64638;HTU21D;51049;45.046;38.950;2023-06-22T12:29:42;36.36;22.76
64638;HTU21D;51049;45.046;38.950;2023-06-22T12:32:08;36.59;22.21
64638;HTU21D;51049;45.046;38.950;2023-06-22T12:34:34;36.81;22.24
64638;HTU21D;51049;45.046;38.950;2023-06-22T12:36:59;37.05;22.04
64638;HTU21D;51049;45.046;38.950;2023-06-22T12:39:25;37.29;22.02
64638;HTU21D;51049;45.046;38.950;2023-06-22T12:41:51;37.71;21.51
64638;HTU21D;51049;45.046;38.950;2023-06-22T12:44:17;37.84;21.02
64638;HTU21D;51049;45.046;38.950;2023-06-22T12:46:43;37.77;21.11
64638;HTU21D;51049;45.046;38.950;2023-06-22T12:49:09;37.90;21.07
64638;HTU21D;51049;45.046;38.950;2023-06-22T12:51:40;37.95;20.76
64638;HTU21D;51049;45.046;38.950;2023-06-22T12:54:07;37.87;20.32
64638;HTU21D;51049;45.046;38.950;2023-06-22T12:56:33;37.84;20.48
64638;HTU21D;51049;45.046;38.950;2023-06-22T12:58:59;37.82;20.48
64638;HTU21D;51049;45.046;38.950;2023-06-22T13:01:27;37.90;20.44
64638;HTU21D;51049;45.046;38.950;2023-06-22T13:03:53;38.01;20.05
64638;HTU21D;51049;45.046;38.950;2023-06-22T13:06:19;37.92;19.72
64638;HTU21D;51049;45.046;38.950;2023-06-22T13:08:45;37.77;19.87
64638;HTU21D;51049;45.046;38.950;2023-06-22T13:11:11;37.78;19.78
64638;HTU21D;51049;45.046;38.950;2023-06-22T13:13:38;37.76;19.57
64638;HTU21D;51049;45.046;38.950;2023-06-22T13:16:04;37.66;19.64
64638;HTU21D;51049;45.046;38.950;2023-06-22T13:18:30;37.45;19.32
64638;HTU21D;51049;45.046;38.950;2023-06-22T13:20:57;37.20;19.72
64638;HTU21D;51049;45.046;38.950;2023-06-22T13:23:23;37.13;19.70
64638;HTU21D;51049;45.046;38.950;2023-06-22T13:25:49;37.06;19.87
64638;HTU21D;51049;45.046;38.950;2023-06-22T13:28:15;37.26;19.83
64638;HTU21D;51049;45.046;38.950;2023-06-22T13:30:42;37.49;19.66
64638;HTU21D;51049;45.046;38.950;2023-06-22T13:33:08;37.54;19.47
64638;HTU21D;51049;45.046;38.950;2023-06-22T13:35:35;37.38;19.29
64638;HTU21D;51049;45.046;38.950;2023-06-22T13:38:01;37.17;18.94
64638;HTU21D;51049;45.046;38.950;2023-06-22T13:40:27;36.93;19.16
64638;HTU21D;51049;45.046;38.950;2023-06-22T13:42:53;36.83;19.15
64638;HTU21D;51049;45.046;38.950;2023-06-22T13:45:19;36.77;19.01
64638;HTU21D;51049;45.046;38.950;2023-06-22T13:47:45;36.58;19.23
64638;HTU21D;51049;45.046;38.950;2023-06-22T13:50:12;36.45;19.15
64638;HTU21D;51049;45.046;38.950;2023-06-22T13:52:39;36.39;19.16
64638;HTU21D;51049;45.046;38.950;2023-06-22T13:55:05;36.43;19.22
64638;HTU21D;51049;45.046;38.950;2023-06-22T13:57:33;36.49;19.12
64638;HTU21D;51049;45.046;38.950;2023-06-22T13:59:59;36.41;18.79
64638;HTU21D;51049;45.046;38.950;2023-06-22T14:02:28;36.13;19.05
64638;HTU21D;51049;45.046;38.950;2023-06-22T14:04:54;35.93;19.23
64638;HTU21D;51049;45.046;38.950;2023-06-22T14:07:20;35.70;19.15
64638;HTU21D;51049;45.046;38.950;2023-06-22T14:09:46;35.56;19.09
64638;HTU21D;51049;45.046;38.950;2023-06-22T14:12:13;35.37;19.05
64638;HTU21D;51049;45.046;38.950;2023-06-22T14:14:39;35.31;19.15
64638;HTU21D;51049;45.046;38.950;2023-06-22T14:17:05;35.33;19.16
64638;HTU21D;51049;45.046;38.950;2023-06-22T14:19:31;35.50;19.18
64638;HTU21D;51049;45.046;38.950;2023-06-22T14:21:57;35.65;19.09
64638;HTU21D;51049;45.046;38.950;2023-06-22T14:24:23;35.60;18.95
64638;HTU21D;51049;45.046;38.950;2023-06-22T14:26:49;35.48;18.85
64638;HTU21D;51049;45.046;38.950;2023-06-22T14:29:15;35.37;18.85
64638;HTU21D;51049;45.046;38.950;2023-06-22T14:31:44;35.25;18.90
64638;HTU21D;51049;45.046;38.950;2023-06-22T14:34:11;35.19;19.03
64638;HTU21D;51049;45.046;38.950;2023-06-22T14:36:37;35.16;18.69
64638;HTU21D;51049;45.046;38.950;2023-06-22T14:39:02;35.00;18.40
64638;HTU21D;51049;45.046;38.950;2023-06-22T14:41:30;34.77;18.31
64638;HTU21D;51049;45.046;38.950;2023-06-22T14:43:56;34.63;18.44
64638;HTU21D;51049;45.046;38.950;2023-06-22T14:46:22;34.59;18.49
64638;HTU21D;51049;45.046;38.950;2023-06-22T14:48:48;34.49;18.65
64638;HTU21D;51049;45.046;38.950;2023-06-22T14:51:14;34.53;18.79
64638;HTU21D;51049;45.046;38.950;2023-06-22T14:53:42;34.48;18.68
64638;HTU21D;51049;45.046;38.950;2023-06-22T14:56:09;34.38;18.79
64638;HTU21D;51049;45.046;38.950;2023-06-22T14:58:35;34.23;18.96
64638;HTU21D;51049;45.046;38.950;2023-06-22T15:01:02;34.20;19.08
64638;HTU21D;51049;45.046;38.950;2023-06-22T15:03:30;34.24;19.02
64638;HTU21D;51049;45.046;38.950;2023-06-22T15:05:58;34.15;19.11
64638;HTU21D;51049;45.046;38.950;2023-06-22T15:08:24;34.12;19.13
64638;HTU21D;51049;45.046;38.950;2023-06-22T15:10:52;34.11;19.08